Time;durP1;ratioP1;P1;durP2;ratioP2;P2;SDS_P1;SDS_P2;PMS_P1;PMS_P2;Temp;Humidity;BMP_temperature;BMP_pressure;BME280_temperature;BME280_humidity;BME280_pressure;Samples;Min_cycle;Max_cycle;Signal;HPM_P1;HPM_P2
2023/06/12 00:00:56;;;;;;;19.90;8.05;;;22.30;76.50;;;;;;5072887;28;20496;-69
2023/06/12 00:03:26;;;;;;;20.48;8.80;;;23.30;87.90;;;;;;5056212;28;20463;-68
2023/06/12 00:05:58;;;;;;;14.35;7.00;;;23.00;88.10;;;;;;5073206;28;20438;-68
2023/06/12 00:08:25;;;;;;;;;;;22.10;78.50;;;;;;5073620;28;20392;-68
2023/06/12 00:10:51;;;;;;;17.88;7.70;;;22.40;88.10;;;;;;5059624;28;19922;-68
2023/06/12 00:13:17;;;;;;;17.52;8.05;;;23.00;88.50;;;;;;5092973;28;20036;-68
2023/06/12 00:15:42;;;;;;;23.52;8.40;;;21.40;87.90;;;;;;5092974;28;20047;-68
2023/06/12 00:18:08;;;;;;;16.05;7.32;;;22.40;84.90;;;;;;5076141;28;20052;-69
2023/06/12 00:20:34;;;;;;;16.70;8.07;;;;;;;;;;5065836;28;20117;-68
2023/06/12 00:23:01;;;;;;;20.17;7.97;;;21.80;77.50;;;;;;5072595;28;20040;-68
2023/06/12 00:25:26;;;;;;;15.93;7.40;;;21.00;88.40;;;;;;5044494;28;20032;-68
2023/06/12 00:27:52;;;;;;;18.45;7.88;;;21.40;84.70;;;;;;5056204;28;20465;-68
2023/06/12 00:30:18;;;;;;;20.00;7.80;;;21.60;85.70;;;;;;5072843;28;20512;-68
2023/06/12 00:32:44;;;;;;;22.00;8.25;;;;;;;;;;5074004;28;20071;-69
2023/06/12 00:35:10;;;;;;;25.73;8.35;;;21.70;88.30;;;;;;5071626;28;20087;-68
2023/06/12 00:37:37;;;;;;;20.13;8.57;;;20.80;89.30;;;;;;5072254;28;20095;-68
2023/06/12 00:40:03;;;;;;;21.30;8.50;;;;;;;;;;5055637;28;20081;-68
2023/06/12 00:42:35;;;;;;;15.75;7.57;;;20.60;89.60;;;;;;5072540;28;20044;-68
2023/06/12 00:45:01;;;;;;;20.60;8.18;;;;;;;;;;5055554;28;20094;-68
2023/06/12 00:47:27;;;;;;;15.52;7.80;;;;;;;;;;5072186;28;20075;-68
2023/06/12 00:49:53;;;;;;;16.33;7.80;;;22.10;83.20;;;;;;5071084;28;20044;-68
2023/06/12 00:52:24;;;;;;;19.98;8.55;;;21.30;80.40;;;;;;5073369;28;20054;-68
2023/06/12 00:54:50;;;;;;;17.13;7.72;;;20.70;81.80;;;;;;5073581;28;20033;-68
2023/06/12 00:57:16;;;;;;;22.45;8.95;;;;;;;;;;5090721;28;20056;-68
2023/06/12 00:59:42;;;;;;;21.98;7.95;;;20.20;89.60;;;;;;5092085;28;20076;-68
2023/06/12 01:02:09;;;;;;;20.73;7.93;;;;;;;;;;5074825;28;20137;-68
2023/06/12 01:04:37;;;;;;;18.95;7.43;;;;;;;;;;5071960;28;20480;-68
2023/06/12 01:07:10;;;;;;;21.92;8.13;;;20.20;90.60;;;;;;5055426;28;20044;-68
2023/06/12 01:10:25;;;;;;;17.02;7.43;;;21.40;91.00;;;;;;5089302;28;20075;-68
2023/06/12 01:12:52;;;;;;;18.20;8.48;;;21.70;85.10;;;;;;5071577;28;20506;-68
2023/06/12 01:15:17;;;;;;;26.63;8.02;;;21.40;91.20;;;;;;5071843;28;20052;-68
2023/06/12 01:17:43;;;;;;;19.52;7.45;;;21.60;91.30;;;;;;5071878;28;20094;-68
2023/06/12 01:20:11;;;;;;;25.27;8.77;;;21.30;91.30;;;;;;5055062;28;20082;-68
2023/06/12 01:23:20;;;;;;;26.13;9.05;;;21.80;91.50;;;;;;5055256;28;20033;-68
2023/06/12 01:26:26;;;;;;;19.27;7.60;;;20.70;80.40;;;;;;5061148;28;20541;-68
2023/06/12 01:29:14;;;;;;;22.23;7.80;;;19.80;91.20;;;;;;5081825;28;20039;-68
2023/06/12 01:32:01;;;;;;;21.42;8.70;;;20.50;91.50;;;;;;5091840;28;20032;-68
2023/06/12 01:34:37;;;;;;;24.27;8.23;;;20.90;81.50;;;;;;5091512;28;20074;-68
2023/06/12 01:37:15;;;;;;;17.65;7.55;;;21.50;85.70;;;;;;5091620;28;20048;-68
2023/06/12 01:39:45;;;;;;;14.73;7.57;;;21.50;92.20;;;;;;5074055;28;20075;-68
2023/06/12 01:42:12;;;;;;;18.55;8.52;;;20.70;83.90;;;;;;5071860;28;20461;-68
2023/06/12 01:44:37;;;;;;;23.95;7.68;;;21.40;92.30;;;;;;5071554;28;20051;-68
2023/06/12 01:47:03;;;;;;;17.65;7.88;;;20.70;91.60;;;;;;5071790;28;20053;-68
2023/06/12 01:49:30;;;;;;;21.05;7.13;;;;;;;;;;5071691;28;20048;-68
2023/06/12 01:51:55;;;;;;;13.32;7.28;;;20.00;92.20;;;;;;5071474;28;20041;-68
2023/06/12 01:54:22;;;;;;;21.73;9.65;;;;;;;;;;5087984;28;20044;-68
2023/06/12 01:56:49;;;;;;;19.58;7.45;;;21.20;92.70;;;;;;5090754;28;20154;-68
2023/06/12 01:59:15;;;;;;;21.77;7.88;;;19.30;91.40;;;;;;5074376;28;20040;-68
2023/06/12 02:01:41;;;;;;;12.30;7.72;;;;;;;;;;5094580;28;20101;-68
2023/06/12 02:04:07;;;;;;;19.15;7.72;;;20.60;92.90;;;;;;5081187;28;20037;-68
2023/06/12 02:06:33;;;;;;;19.45;7.20;;;;;;;;;;5086022;28;20040;-68
2023/06/12 02:08:59;;;;;;;23.30;7.70;;;19.40;93.00;;;;;;5089863;28;20036;-68
2023/06/12 02:11:25;;;;;;;19.08;6.80;;;18.90;92.90;;;;;;5058739;28;20469;-70
2023/06/12 02:13:51;;;;;;;28.52;7.90;;;19.00;93.00;;;;;;5079109;28;20040;-71
2023/06/12 02:16:21;;;;;;;19.58;7.70;;;19.60;93.40;;;;;;5095574;28;20117;-71
2023/06/12 02:18:47;;;;;;;21.50;7.22;;;20.60;93.70;;;;;;5094877;28;20032;-71
2023/06/12 02:21:13;;;;;;;16.08;7.60;;;;;;;;;;5095180;28;20043;-68
2023/06/12 02:23:41;;;;;;;17.98;7.43;;;;;;;;;;5077925;28;20127;-67
2023/06/12 02:26:07;;;;;;;14.10;7.65;;;;;;;;;;5095328;28;20177;-68
2023/06/12 02:28:33;;;;;;;17.48;7.50;;;19.00;89.90;;;;;;5096134;28;20047;-68
2023/06/12 02:31:00;;;;;;;18.67;8.13;;;19.70;94.00;;;;;;5095112;28;20043;-68
2023/06/12 02:33:27;;;;;;;17.60;7.95;;;20.60;94.30;;;;;;5094725;28;20552;-68
2023/06/12 02:35:53;;;;;;;20.08;7.72;;;20.20;91.00;;;;;;5095935;28;20365;-68
2023/06/12 02:38:19;;;;;;;23.58;8.68;;;;;;;;;;5077538;28;20047;-73
2023/06/12 02:40:45;;;;;;;19.83;8.00;;;;;;;;;;5092182;28;20499;-72
2023/06/12 02:43:11;;;;;;;15.50;7.68;;;;;;;;;;5057889;28;20051;-73
2023/06/12 02:45:37;;;;;;;19.02;7.63;;;19.70;94.30;;;;;;5057769;28;20036;-73
2023/06/12 02:48:03;;;;;;;19.55;7.50;;;20.50;95.30;;;;;;5074378;28;20048;-72
2023/06/12 02:50:28;;;;;;;24.95;7.80;;;18.60;91.90;;;;;;5074482;28;20098;-73
2023/06/12 02:52:54;;;;;;;19.02;7.70;;;;;;;;;;5075478;28;20506;-73
2023/06/12 02:55:20;;;;;;;19.20;7.93;;;;;;;;;;5057693;28;20561;-73
2023/06/12 02:57:46;;;;;;;17.42;6.78;;;;;;;;;;5074195;28;20045;-72
2023/06/12 03:00:14;;;;;;;21.02;7.60;;;;;;;;;;5057482;28;20048;-72
2023/06/12 03:02:42;;;;;;;22.42;7.47;;;;;;;;;;5074268;28;20039;-72
2023/06/12 03:05:15;;;;;;;20.25;7.65;;;18.90;94.20;;;;;;5073927;28;20377;-72
2023/06/12 03:07:44;;;;;;;17.45;6.90;;;19.60;95.90;;;;;;5074090;28;20048;-72
2023/06/12 03:10:10;;;;;;;14.93;7.22;;;20.20;96.10;;;;;;5073958;28;20048;-72
2023/06/12 03:12:36;;;;;;;22.92;8.23;;;;;;;;;;5073071;28;20190;-73
2023/06/12 03:15:02;;;;;;;16.55;7.70;;;19.50;96.10;;;;;;5074075;28;20430;-72
2023/06/12 03:17:28;;;;;;;21.55;7.10;;;19.00;91.20;;;;;;5063082;28;20052;-72
2023/06/12 03:19:54;;;;;;;15.85;7.22;;;;;;;;;;5071063;28;20032;-71
2023/06/12 03:22:20;;;;;;;19.10;7.45;;;;;;;;;;5090312;28;20047;-71
2023/06/12 03:24:46;;;;;;;18.33;7.53;;;18.30;95.90;;;;;;5073483;28;20489;-71
2023/06/12 03:27:14;;;;;;;14.68;6.82;;;;;;;;;;5053845;28;20131;-71
2023/06/12 03:29:40;;;;;;;12.68;7.40;;;;;;;;;;5072587;28;20040;-68
2023/06/12 03:32:06;;;;;;;17.85;7.65;;;18.90;91.40;;;;;;5085535;28;20097;-68
2023/06/12 03:34:32;;;;;;;25.95;8.05;;;;;;;;;;5057367;28;20127;-68
2023/06/12 03:36:58;;;;;;;19.00;7.53;;;18.40;93.00;;;;;;5081989;28;20121;-68
2023/06/12 03:39:25;;;;;;;28.67;7.88;;;;;;;;;;5093690;28;20549;-68
2023/06/12 03:41:56;;;;;;;18.02;7.28;;;18.70;92.20;;;;;;5087911;28;20041;-68
2023/06/12 03:44:22;;;;;;;19.45;7.45;;;18.40;96.60;;;;;;5073669;28;20127;-68
2023/06/12 03:46:48;;;;;;;20.55;7.43;;;17.60;96.50;;;;;;5103162;28;20043;-71
2023/06/12 03:49:14;;;;;;;17.58;7.95;;;19.10;96.80;;;;;;5088704;28;20044;-72
2023/06/12 03:51:41;;;;;;;24.27;7.40;;;18.40;96.90;;;;;;5080465;28;20063;-72
2023/06/12 03:54:07;;;;;;;17.27;7.85;;;18.60;92.30;;;;;;5077081;28;20055;-72
2023/06/12 03:56:33;;;;;;;20.35;7.95;;;18.60;92.80;;;;;;5084279;28;20048;-71
2023/06/12 03:59:00;;;;;;;19.00;7.28;;;17.30;96.90;;;;;;5055834;28;20447;-72
2023/06/12 04:01:26;;;;;;;25.02;8.13;;;;;;;;;;5072911;28;20128;-72
2023/06/12 04:03:53;;;;;;;17.25;7.63;;;;;;;;;;5092401;28;20044;-72
2023/06/12 04:06:24;;;;;;;17.50;7.47;;;17.80;97.40;;;;;;5059588;28;20044;-70
2023/06/12 04:08:51;;;;;;;20.90;8.15;;;18.50;96.30;;;;;;5093237;28;20084;-71
2023/06/12 04:11:19;;;;;;;24.95;8.10;;;19.50;97.90;;;;;;5079693;28;20137;-72
2023/06/12 04:13:45;;;;;;;16.73;7.65;;;;;;;;;;5073041;28;20374;-72
2023/06/12 04:16:11;;;;;;;19.48;7.35;;;19.30;93.40;;;;;;5080477;28;20599;-71
2023/06/12 04:18:37;;;;;;;18.80;8.20;;;;;;;;;;5046542;28;20127;-68
2023/06/12 04:21:07;;;;;;;19.80;7.90;;;17.50;97.40;;;;;;5083904;28;20036;-68
2023/06/12 04:23:33;;;;;;;26.45;8.07;;;;;;;;;;5087943;28;20170;-68
2023/06/12 04:26:05;;;;;;;24.35;7.65;;;18.20;93.60;;;;;;5080201;28;20040;-68
2023/06/12 04:28:38;;;;;;;15.75;7.97;;;18.30;92.90;;;;;;5083616;28;20468;-68
2023/06/12 04:31:04;;;;;;;22.23;7.80;;;19.40;98.50;;;;;;5082898;28;20032;-68
2023/06/12 04:33:32;;;;;;;18.90;7.45;;;19.50;98.60;;;;;;5076056;28;20396;-68
2023/06/12 04:36:00;;;;;;;18.63;7.25;;;19.50;98.00;;;;;;5081721;28;20036;-68
2023/06/12 04:38:27;;;;;;;14.88;7.22;;;;;;;;;;5076074;28;20101;-68
2023/06/12 04:40:54;;;;;;;22.70;8.27;;;17.60;98.40;;;;;;5092816;28;20036;-68
2023/06/12 04:43:20;;;;;;;20.55;7.95;;;18.60;94.30;;;;;;5092455;28;20550;-68
2023/06/12 04:45:46;;;;;;;24.25;7.88;;;19.00;97.90;;;;;;5092311;28;20036;-68
2023/06/12 04:48:13;;;;;;;16.80;7.88;;;;;;;;;;5075685;28;20119;-68
2023/06/12 04:50:39;;;;;;;22.27;8.63;;;;;;;;;;5092534;28;20097;-68
2023/06/12 04:53:06;;;;;;;19.55;8.50;;;18.20;95.10;;;;;;5092548;28;20048;-68
2023/06/12 04:55:32;;;;;;;31.90;9.18;;;17.70;98.70;;;;;;5092253;28;20039;-68
2023/06/12 04:57:59;;;;;;;26.83;8.63;;;19.20;99.00;;;;;;5091129;28;20057;-68
2023/06/12 05:00:28;;;;;;;21.25;8.00;;;;;;;;;;5057841;28;20052;-67
2023/06/12 05:02:55;;;;;;;19.98;7.95;;;18.40;94.00;;;;;;5075852;28;20127;-67
2023/06/12 05:05:21;;;;;;;19.20;8.18;;;19.50;99.20;;;;;;5055922;28;20036;-68
2023/06/12 05:07:48;;;;;;;23.95;7.68;;;17.80;98.90;;;;;;5062307;28;20496;-68
2023/06/12 05:10:15;;;;;;;18.77;8.18;;;18.80;94.60;;;;;;5091694;28;20487;-68
2023/06/12 05:12:40;;;;;;;26.23;8.57;;;19.60;99.40;;;;;;5091487;28;20079;-68
2023/06/12 05:15:07;;;;;;;18.38;8.10;;;19.60;95.40;;;;;;5074898;28;20071;-68
2023/06/12 05:17:33;;;;;;;27.73;8.77;;;17.60;99.00;;;;;;5080039;28;20040;-68
2023/06/12 05:19:59;;;;;;;25.48;8.85;;;19.30;96.50;;;;;;5060657;28;20354;-68
2023/06/12 05:22:27;;;;;;;22.45;8.88;;;19.60;96.30;;;;;;5090717;28;20036;-68
2023/06/12 05:24:53;;;;;;;25.90;8.57;;;;;;;;;;5066156;28;20530;-68
2023/06/12 05:27:20;;;;;;;24.23;9.18;;;;;;;;;;5072890;28;20048;-68
2023/06/12 05:29:45;;;;;;;29.77;9.73;;;19.60;95.60;;;;;;5074712;28;20045;-68
2023/06/12 05:32:11;;;;;;;23.85;9.02;;;;;;;;;;5074641;28;20051;-68
2023/06/12 05:34:37;;;;;;;24.23;9.48;;;19.30;96.40;;;;;;5077672;28;20042;-68
2023/06/12 05:37:03;;;;;;;20.73;9.15;;;;;;;;;;5084746;28;20131;-71
2023/06/12 05:39:29;;;;;;;23.73;9.45;;;19.70;95.90;;;;;;5079409;28;20040;-68
2023/06/12 05:41:55;;;;;;;24.15;9.77;;;19.70;99.80;;;;;;5070646;28;20396;-68
2023/06/12 05:44:22;;;;;;;20.48;9.13;;;;;;;;;;5077382;28;20472;-68
2023/06/12 05:46:51;;;;;;;28.98;9.32;;;17.90;97.10;;;;;;5076544;28;20084;-69
2023/06/12 05:49:17;;;;;;;31.10;11.75;;;19.70;99.90;;;;;;5079712;28;20044;-69
2023/06/12 05:51:43;;;;;;;26.40;9.38;;;19.40;99.80;;;;;;5077059;28;20484;-69
2023/06/12 05:54:09;;;;;;;28.38;9.07;;;18.60;99.60;;;;;;5077463;28;20047;-69
2023/06/12 05:56:35;;;;;;;30.80;9.85;;;;;;;;;;5075462;28;20041;-69
2023/06/12 05:59:01;;;;;;;30.83;9.35;;;;;;;;;;5074273;28;20063;-68
2023/06/12 06:01:27;;;;;;;22.27;10.45;;;20.10;99.90;;;;;;5077645;28;20146;-68
2023/06/12 06:03:53;;;;;;;27.13;9.80;;;;;;;;;;5062356;28;20171;-68
2023/06/12 06:06:19;;;;;;;23.05;10.15;;;19.90;99.80;;;;;;5077574;28;20036;-68
2023/06/12 06:08:45;;;;;;;25.95;10.38;;;;;;;;;;5085706;28;20043;-68
2023/06/12 06:11:11;;;;;;;22.55;10.40;;;20.20;99.90;;;;;;5070912;28;20036;-68
2023/06/12 06:13:37;;;;;;;31.85;11.60;;;;;;;;;;5058313;28;20032;-68
2023/06/12 06:16:03;;;;;;;27.00;10.68;;;18.50;99.60;;;;;;5082916;28;20054;-68
2023/06/12 06:18:29;;;;;;;30.67;10.50;;;;;;;;;;5074828;28;20087;-69
2023/06/12 06:20:55;;;;;;;27.30;10.18;;;19.80;99.90;;;;;;5081826;28;20039;-69
2023/06/12 06:23:21;;;;;;;24.33;10.68;;;20.00;99.90;;;;;;5055133;28;20028;-69
2023/06/12 06:25:48;;;;;;;27.45;10.35;;;;;;;;;;5083463;28;20036;-69
2023/06/12 06:28:14;;;;;;;23.95;9.80;;;;;;;;;;5058293;28;20515;-69
2023/06/12 06:30:40;;;;;;;26.25;10.60;;;;;;;;;;5075012;28;20040;-69
2023/06/12 06:33:06;;;;;;;28.10;10.65;;;18.60;95.60;;;;;;5088343;28;20495;-69
2023/06/12 06:35:32;;;;;;;31.85;11.10;;;;;;;;;;5076447;28;20119;-68
2023/06/12 06:37:58;;;;;;;29.23;11.82;;;18.80;99.70;;;;;;5084321;28;20044;-69
2023/06/12 06:40:25;;;;;;;21.83;10.27;;;20.20;97.90;;;;;;5074917;28;20573;-69
2023/06/12 06:42:52;;;;;;;22.40;10.60;;;;;;;;;;5083971;28;20067;-68
2023/06/12 06:45:19;;;;;;;33.05;10.98;;;20.00;99.90;;;;;;5076740;28;20441;-69
2023/06/12 06:47:45;;;;;;;28.50;11.15;;;;;;;;;;5082251;28;20055;-68
2023/06/12 06:50:11;;;;;;;25.08;10.55;;;19.80;95.20;;;;;;5086853;28;20144;-68
2023/06/12 06:52:37;;;;;;;27.58;10.55;;;18.80;95.50;;;;;;5080759;28;20029;-69
2023/06/12 06:55:04;;;;;;;26.05;10.38;;;;;;;;;;5074719;28;20113;-68
2023/06/12 06:57:30;;;;;;;33.75;11.52;;;20.80;99.90;;;;;;5065634;28;20036;-69
2023/06/12 06:59:57;;;;;;;33.67;9.93;;;20.20;95.60;;;;;;5072028;28;20093;-69
2023/06/12 07:02:23;;;;;;;23.38;9.02;;;20.60;99.90;;;;;;5085815;28;20036;-68
2023/06/12 07:04:50;;;;;;;25.88;9.10;;;19.80;95.30;;;;;;5088726;28;20036;-68
2023/06/12 07:07:16;;;;;;;27.08;9.27;;;;;;;;;;5074980;28;20040;-69
2023/06/12 07:09:42;;;;;;;24.73;9.43;;;;;;;;;;5060018;28;20036;-70
2023/06/12 07:12:08;;;;;;;20.98;8.75;;;20.00;94.70;;;;;;5080123;28;20070;-69
2023/06/12 07:14:34;;;;;;;23.25;9.32;;;;;;;;;;5074744;28;20117;-69
2023/06/12 07:17:00;;;;;;;25.90;9.63;;;19.70;95.30;;;;;;5062594;28;20075;-69
2023/06/12 07:19:26;;;;;;;23.67;9.05;;;;;;;;;;5074619;28;20079;-69
2023/06/12 07:21:52;;;;;;;23.30;8.90;;;;;;;;;;5082739;28;20037;-69
2023/06/12 07:24:18;;;;;;;24.77;9.02;;;19.90;98.00;;;;;;5074004;28;20472;-71
2023/06/12 07:26:44;;;;;;;22.55;8.98;;;;;;;;;;5059492;28;20124;-72
2023/06/12 07:29:10;;;;;;;34.90;8.45;;;19.50;98.00;;;;;;5080899;28;20047;-72
2023/06/12 07:31:37;;;;;;;19.25;8.20;;;;;;;;;;5070276;28;20036;-72
2023/06/12 07:34:03;;;;;;;16.63;7.75;;;;;;;;;;5073808;28;20055;-72
2023/06/12 07:36:35;;;;;;;20.02;8.38;;;19.70;96.70;;;;;;5085306;28;20139;-72
2023/06/12 07:39:01;;;;;;;21.58;7.50;;;;;;;;;;5079850;28;20078;-70
2023/06/12 07:41:27;;;;;;;16.05;8.05;;;;;;;;;;5073691;28;20059;-70
2023/06/12 07:43:53;;;;;;;14.25;7.10;;;;;;;;;;5072465;28;20028;-70
2023/06/12 07:46:19;;;;;;;19.25;7.60;;;;;;;;;;5056615;28;20488;-70
2023/06/12 07:48:45;;;;;;;22.50;7.50;;;20.20;97.80;;;;;;5074436;28;20123;-70
2023/06/12 07:51:11;;;;;;;14.35;7.18;;;;;;;;;;5056225;28;20163;-70
2023/06/12 07:53:37;;;;;;;16.90;7.28;;;21.70;97.00;;;;;;5086319;28;20115;-70
2023/06/12 07:56:03;;;;;;;17.15;6.68;;;21.30;94.40;;;;;;5090161;28;20170;-69
2023/06/12 07:58:30;;;;;;;22.25;6.60;;;21.20;95.00;;;;;;5078028;28;20048;-74
2023/06/12 08:00:56;;;;;;;17.33;7.45;;;21.20;94.50;;;;;;5087476;28;20052;-75
2023/06/12 08:03:24;;;;;;;15.32;7.07;;;21.20;95.20;;;;;;5065298;28;20036;-69
2023/06/12 08:05:53;;;;;;;15.95;7.57;;;21.60;99.20;;;;;;5089905;28;20040;-72
2023/06/12 08:08:20;;;;;;;14.65;7.07;;;20.50;99.10;;;;;;5088715;28;20071;-73
2023/06/12 08:10:46;;;;;;;23.88;7.32;;;21.30;99.30;;;;;;5092482;28;20042;-72
2023/06/12 08:13:12;;;;;;;27.55;8.65;;;;;;;;;;5087016;28;20036;-73
2023/06/12 08:15:37;;;;;;;15.65;6.43;;;22.00;98.40;;;;;;5076767;28;20055;-73
2023/06/12 08:18:04;;;;;;;15.65;6.63;;;;;;;;;;5072967;28;20476;-73
2023/06/12 08:20:32;;;;;;;17.88;5.72;;;22.50;97.20;;;;;;5072749;28;20070;-72
2023/06/12 08:22:58;;;;;;;18.02;7.38;;;21.50;99.00;;;;;;5042833;28;20039;-72
2023/06/12 08:25:24;;;;;;;12.57;5.93;;;21.80;98.90;;;;;;5066555;28;20028;-75
2023/06/12 08:27:50;;;;;;;14.20;5.70;;;;;;;;;;5077215;28;20040;-72
2023/06/12 08:30:16;;;;;;;11.75;6.10;;;22.30;98.70;;;;;;5056023;28;20119;-72
2023/06/12 08:32:42;;;;;;;12.30;5.50;;;22.40;98.30;;;;;;5078187;28;20119;-72
2023/06/12 08:35:08;;;;;;;16.52;5.32;;;22.60;98.00;;;;;;5091008;28;20044;-80
2023/06/12 08:37:35;;;;;;;11.20;5.78;;;22.20;97.50;;;;;;5063111;28;20044;-79
2023/06/12 08:40:01;;;;;;;12.65;4.95;;;22.10;93.20;;;;;;5066299;28;20123;-71
2023/06/12 08:42:27;;;;;;;10.05;5.38;;;;;;;;;;5078624;28;20039;-71
2023/06/12 08:45:02;;;;;;;10.25;4.88;;;22.30;93.30;;;;;;5083660;28;20119;-70
2023/06/12 08:47:32;;;;;;;10.57;5.10;;;23.00;96.80;;;;;;5056231;28;20075;-71
2023/06/12 08:49:58;;;;;;;10.52;4.82;;;;;;;;;;5072196;28;20049;-70
2023/06/12 08:52:25;;;;;;;14.55;5.10;;;22.60;91.70;;;;;;5058143;28;20043;-71
2023/06/12 08:54:52;;;;;;;12.38;4.97;;;22.40;91.80;;;;;;5071769;28;20052;-71
2023/06/12 08:57:19;;;;;;;11.05;4.70;;;23.10;91.60;;;;;;5072105;28;20044;-71
2023/06/12 08:59:45;;;;;;;9.38;4.80;;;23.60;94.90;;;;;;5072983;28;20408;-71
2023/06/12 09:02:12;;;;;;;11.20;4.85;;;23.70;94.00;;;;;;5084016;28;20063;-71
2023/06/12 09:04:44;;;;;;;15.90;5.07;;;23.00;89.30;;;;;;5073389;28;20476;-72
2023/06/12 09:07:16;;;;;;;15.45;5.22;;;23.00;94.20;;;;;;5083963;28;20098;-70
2023/06/12 09:09:41;;;;;;;;;;;23.40;91.10;;;;;;5075834;28;20036;-70
2023/06/12 09:12:13;;;;;;;11.65;4.60;;;23.80;93.60;;;;;;5071184;28;19916;-70
2023/06/12 09:14:40;;;;;;;17.07;4.87;;;23.70;88.70;;;;;;5086064;28;20118;-70
2023/06/12 09:17:09;;;;;;;56.35;6.93;;;23.80;87.70;;;;;;5082157;28;20093;-70
2023/06/12 09:19:46;;;;;;;8.68;4.20;;;23.90;87.00;;;;;;5072948;28;20043;-71
2023/06/12 09:22:12;;;;;;;17.13;4.60;;;23.30;91.80;;;;;;5058162;28;20036;-70
2023/06/12 09:24:39;;;;;;;14.45;4.80;;;24.00;91.80;;;;;;5075566;28;20037;-70
2023/06/12 09:27:05;;;;;;;10.48;5.40;;;24.60;91.90;;;;;;5085408;28;20040;-70
2023/06/12 09:29:36;;;;;;;8.75;4.57;;;24.00;91.40;;;;;;5079565;28;20075;-71
2023/06/12 09:32:12;;;;;;;11.10;4.50;;;24.00;90.90;;;;;;5082140;28;20047;-71
2023/06/12 09:34:40;;;;;;;11.57;5.05;;;24.80;86.40;;;;;;5078754;28;20075;-72
2023/06/12 09:37:08;;;;;;;8.73;3.95;;;24.90;90.60;;;;;;5083997;28;20062;-70
2023/06/12 09:39:34;;;;;;;8.93;4.22;;;24.60;81.70;;;;;;5080777;28;20052;-70
2023/06/12 09:42:01;;;;;;;6.85;4.30;;;24.10;89.80;;;;;;5076781;28;20384;-70
2023/06/12 09:44:29;;;;;;;7.85;4.25;;;24.90;90.00;;;;;;5084968;28;20028;-70
2023/06/12 09:47:03;;;;;;;6.07;4.20;;;25.00;82.70;;;;;;5075278;28;20079;-70
2023/06/12 09:49:30;;;;;;;12.20;5.18;;;25.60;88.80;;;;;;5081276;28;20051;-72
2023/06/12 09:52:00;;;;;;;8.23;4.60;;;24.80;80.60;;;;;;5061423;28;20094;-72
2023/06/12 09:54:29;;;;;;;10.10;4.80;;;25.40;84.80;;;;;;5081937;28;20106;-72
2023/06/12 09:56:58;;;;;;;9.18;4.75;;;25.50;80.30;;;;;;5088059;28;20043;-72
2023/06/12 09:59:28;;;;;;;11.43;4.75;;;24.80;87.60;;;;;;5077000;28;20040;-72
2023/06/12 10:02:04;;;;;;;12.30;4.80;;;25.00;83.90;;;;;;5078077;28;20058;-72
2023/06/12 10:04:59;;;;;;;10.55;4.57;;;26.10;80.40;;;;;;5076367;28;21332;-73
2023/06/12 10:07:31;;;;;;;54.08;8.40;;;26.20;77.30;;;;;;5072680;28;20044;-72
2023/06/12 10:09:57;;;;;;;8.88;4.65;;;26.30;87.20;;;;;;5060322;28;20040;-73
2023/06/12 10:12:25;;;;;;;9.55;4.78;;;26.20;86.40;;;;;;5084686;28;20043;-72
2023/06/12 10:14:52;;;;;;;10.23;4.55;;;25.90;85.50;;;;;;5079713;28;20071;-79
2023/06/12 10:17:19;;;;;;;9.90;4.38;;;26.40;76.70;;;;;;5079700;28;20093;-72
2023/06/12 10:19:47;;;;;;;14.63;5.03;;;26.40;84.00;;;;;;5073593;28;20043;-72
2023/06/12 10:22:13;;;;;;;10.68;4.35;;;26.80;84.00;;;;;;5092197;28;20115;-72
2023/06/12 10:24:40;;;;;;;7.28;4.32;;;26.80;83.20;;;;;;5095395;28;20051;-72
2023/06/12 10:27:07;;;;;;;9.93;4.70;;;26.90;82.80;;;;;;5095113;28;20048;-72
2023/06/12 10:29:36;;;;;;;15.32;5.45;;;26.30;82.10;;;;;;5094992;28;20036;-72
2023/06/12 10:32:09;;;;;;;10.75;4.60;;;27.10;73.70;;;;;;5094976;28;20051;-73
2023/06/12 10:34:39;;;;;;;11.95;4.68;;;26.70;73.70;;;;;;5095179;28;20418;-72
2023/06/12 10:37:22;;;;;;;9.90;4.53;;;27.30;81.90;;;;;;5094952;28;20052;-73
2023/06/12 10:40:09;;;;;;;8.40;4.43;;;27.50;76.30;;;;;;5094815;28;20071;-72
2023/06/12 10:42:41;;;;;;;10.30;4.40;;;27.40;70.10;;;;;;5095134;28;20051;-72
2023/06/12 10:45:19;;;;;;;;;;;27.50;73.30;;;;;;5095493;28;20040;-72
2023/06/12 10:48:05;;;;;;;6.97;4.25;;;27.40;79.10;;;;;;5094521;28;20371;-72
2023/06/12 10:50:31;;;;;;;5.82;4.18;;;;;;;;;;5077027;28;20052;-70
2023/06/12 10:53:00;;;;;;;8.02;4.45;;;27.50;77.70;;;;;;5094635;28;20052;-70
2023/06/12 10:55:33;;;;;;;5.93;4.00;;;27.50;67.50;;;;;;5094452;28;20161;-70
2023/06/12 10:58:01;;;;;;;9.25;4.53;;;27.50;68.90;;;;;;5094386;28;20114;-70
2023/06/12 11:00:31;;;;;;;6.95;4.20;;;27.60;75.90;;;;;;5094496;28;20133;-70
2023/06/12 11:03:03;;;;;;;9.03;3.90;;;27.50;67.40;;;;;;5094815;28;20040;-70
2023/06/12 11:05:31;;;;;;;7.10;4.10;;;28.10;75.20;;;;;;5094737;28;20210;-70
2023/06/12 11:08:06;;;;;;;9.35;4.70;;;27.90;66.40;;;;;;5077678;28;20035;-70
2023/06/12 11:10:34;;;;;;;6.03;4.28;;;28.40;73.80;;;;;;5077496;28;20039;-72
2023/06/12 11:13:02;;;;;;;11.27;4.65;;;28.00;69.60;;;;;;5094715;28;20361;-72
2023/06/12 11:15:28;;;;;;;8.48;3.97;;;28.00;71.20;;;;;;5077100;28;20119;-72
2023/06/12 11:17:54;;;;;;;10.75;4.47;;;28.50;73.00;;;;;;5094073;28;20127;-72
2023/06/12 11:20:22;;;;;;;12.05;4.40;;;28.40;73.00;;;;;;5043738;28;20070;-73
2023/06/12 11:22:49;;;;;;;9.77;4.97;;;28.70;72.90;;;;;;5094135;28;20055;-73
2023/06/12 11:25:16;;;;;;;10.85;4.47;;;28.50;72.30;;;;;;5093996;28;20043;-70
2023/06/12 11:27:42;;;;;;;5.60;4.30;;;28.20;72.50;;;;;;5094050;28;20052;-70
2023/06/12 11:30:13;;;;;;;9.30;4.30;;;28.80;72.40;;;;;;5094039;28;20044;-70
2023/06/12 11:32:40;;;;;;;6.60;4.07;;;28.70;71.90;;;;;;5094265;28;20036;-70
2023/06/12 11:35:09;;;;;;;7.38;4.60;;;28.80;62.50;;;;;;5093035;28;20116;-69
2023/06/12 11:37:37;;;;;;;7.32;3.97;;;28.50;69.50;;;;;;5093746;28;20087;-69
2023/06/12 11:40:09;;;;;;;6.35;4.15;;;29.10;69.50;;;;;;5093579;28;20165;-70
2023/06/12 11:42:35;;;;;;;;;;;29.00;61.80;;;;;;5094018;28;20044;-70
2023/06/12 11:45:01;;;;;;;6.30;3.72;;;29.00;68.20;;;;;;5076754;28;19920;-70
2023/06/12 11:47:28;;;;;;;8.35;3.90;;;29.30;67.90;;;;;;5093483;28;20044;-70
2023/06/12 11:49:53;;;;;;;6.30;3.90;;;29.30;66.40;;;;;;5088474;28;20040;-70
2023/06/12 11:52:21;;;;;;;7.25;4.53;;;29.20;66.80;;;;;;5093409;28;20085;-70
2023/06/12 11:55:02;;;;;;;9.75;4.97;;;29.30;57.40;;;;;;5093455;28;20079;-70
2023/06/12 11:57:28;;;;;;;10.63;4.90;;;29.20;65.60;;;;;;5093165;28;20086;-70
2023/06/12 11:59:58;;;;;;;6.65;3.97;;;29.10;60.30;;;;;;5092870;28;20036;-70
2023/06/12 12:02:32;;;;;;;11.55;5.78;;;29.40;59.20;;;;;;5093105;28;20044;-70
2023/06/12 12:04:59;;;;;;;16.48;5.93;;;29.20;72.10;;;;;;5093502;28;20032;-70
2023/06/12 12:07:27;;;;;;;13.27;5.70;;;29.30;65.30;;;;;;5093534;28;20048;-70
2023/06/12 12:10:10;;;;;;;13.20;6.53;;;29.20;62.90;;;;;;5092948;28;20076;-70
2023/06/12 12:12:50;;;;;;;15.25;6.57;;;29.10;74.80;;;;;;5092927;28;20139;-70
2023/06/12 12:15:20;;;;;;;8.85;5.65;;;29.30;75.60;;;;;;5093012;28;20055;-70
2023/06/12 12:17:47;;;;;;;8.60;5.97;;;29.30;73.80;;;;;;5093178;28;20044;-70
2023/06/12 12:20:23;;;;;;;13.48;6.30;;;29.20;75.20;;;;;;5093112;28;20040;-70
2023/06/12 12:22:59;;;;;;;11.48;6.05;;;29.40;63.90;;;;;;5093192;28;20113;-73
2023/06/12 12:25:28;;;;;;;11.25;5.82;;;29.60;75.00;;;;;;5093079;28;20066;-73
2023/06/12 12:27:56;;;;;;;13.05;6.10;;;29.60;66.10;;;;;;5092865;28;20082;-72
2023/06/12 12:30:22;;;;;;;13.45;5.90;;;29.60;74.40;;;;;;5075812;28;20079;-70
2023/06/12 12:32:51;;;;;;;14.40;6.13;;;29.40;65.80;;;;;;5075962;28;20135;-70
2023/06/12 12:35:17;;;;;;;14.25;6.65;;;29.70;74.60;;;;;;5075728;28;20089;-70
2023/06/12 12:37:44;;;;;;;14.25;6.45;;;29.70;74.30;;;;;;5092607;28;20040;-70
2023/06/12 12:40:13;;;;;;;16.15;6.90;;;30.00;73.80;;;;;;5092728;28;20079;-70
2023/06/12 12:42:48;;;;;;;14.23;6.85;;;29.90;63.10;;;;;;5092676;28;20032;-71
2023/06/12 12:45:16;;;;;;;15.98;7.32;;;29.60;66.10;;;;;;5079299;28;20101;-73
2023/06/12 12:47:48;;;;;;;12.02;6.68;;;30.00;73.80;;;;;;5082606;28;20155;-74
2023/06/12 12:50:17;;;;;;;14.70;7.00;;;30.00;73.50;;;;;;5086941;28;20036;-72
2023/06/12 12:52:43;;;;;;;11.50;6.30;;;;;;;;;;5058875;28;20101;-72
2023/06/12 12:55:10;;;;;;;18.92;7.15;;;30.20;73.90;;;;;;5073623;28;20043;-73
2023/06/12 12:57:38;;;;;;;18.17;6.90;;;29.90;73.10;;;;;;5062942;28;20080;-70
2023/06/12 13:00:09;;;;;;;14.23;6.70;;;30.30;72.70;;;;;;5074172;28;20114;-73
2023/06/12 13:02:37;;;;;;;12.98;6.97;;;30.20;73.10;;;;;;5084883;28;20103;-70
2023/06/12 13:05:03;;;;;;;10.45;6.50;;;30.30;72.60;;;;;;5084976;28;20415;-70
2023/06/12 13:07:32;;;;;;;10.43;5.70;;;30.40;71.70;;;;;;5084186;28;20045;-70